createdAt,value
2023-02-02T00:02:16.165Z,44.73
2023-02-02T00:04:59.575Z,38.23
2023-02-02T00:07:46.641Z,24.03
2023-02-02T00:10:32.298Z,23.90
2023-02-02T00:13:16.087Z,16.97
2023-02-02T00:15:59.200Z,12.00
2023-02-02T00:18:42.318Z,12.87
2023-02-02T00:21:26.407Z,12.83
2023-02-02T00:24:12.553Z,9.60
2023-02-02T00:26:57.838Z,11.30
2023-02-02T00:29:41.060Z,11.33
2023-02-02T00:32:24.310Z,9.57
2023-02-02T00:35:08.980Z,10.90
2023-02-02T00:37:52.235Z,14.67
2023-02-02T00:40:39.033Z,12.17
2023-02-02T00:43:22.108Z,9.90
2023-02-02T00:46:04.622Z,8.87
2023-02-02T00:48:47.778Z,10.83
2023-02-02T00:51:32.770Z,14.00
2023-02-02T00:54:15.892Z,11.63
2023-02-02T00:57:00.501Z,9.90
2023-02-02T00:59:44.821Z,11.67
2023-02-02T01:02:27.930Z,9.97
2023-02-02T01:05:13.098Z,10.43
2023-02-02T01:07:58.612Z,9.80
2023-02-02T01:10:41.675Z,12.33
2023-02-02T01:13:26.226Z,13.83
2023-02-02T01:16:09.422Z,12.93
2023-02-02T01:18:53.182Z,9.77
2023-02-02T01:21:36.238Z,10.97
2023-02-02T01:24:19.289Z,12.47
2023-02-02T01:27:02.823Z,10.60
2023-02-02T01:29:47.309Z,12.77
2023-02-02T01:32:30.379Z,10.63
2023-02-02T01:35:13.457Z,12.33
2023-02-02T01:37:56.636Z,10.00
2023-02-02T01:40:46.437Z,13.00
2023-02-02T01:43:31.527Z,13.90
2023-02-02T01:46:18.194Z,12.73
2023-02-02T01:49:07.324Z,11.67
2023-02-02T01:51:54.939Z,13.00
2023-02-02T01:54:42.316Z,13.27
2023-02-02T01:57:29.433Z,19.93
2023-02-02T02:00:15.941Z,16.63
2023-02-02T02:03:08.367Z,14.90
2023-02-02T02:05:58.101Z,13.60
2023-02-02T02:08:47.377Z,13.43
2023-02-02T02:11:31.722Z,15.60
2023-02-02T02:14:34.814Z,19.73
2023-02-02T02:17:34.952Z,14.93
2023-02-02T02:21:06.707Z,13.27
2023-02-02T02:24:53.595Z,13.10
2023-02-02T02:28:18.444Z,14.17
2023-02-02T02:31:46.449Z,11.87
2023-02-02T02:34:45.046Z,12.80
2023-02-02T02:37:35.050Z,11.77
2023-02-02T02:40:25.569Z,13.40
2023-02-02T02:43:14.836Z,13.57
2023-02-02T02:45:58.497Z,12.17
2023-02-02T02:48:46.643Z,12.73
2023-02-02T02:51:49.542Z,12.83
2023-02-02T02:54:40.847Z,12.57
2023-02-02T02:57:39.950Z,16.13
2023-02-02T03:00:37.622Z,11.57
2023-02-02T03:03:35.516Z,12.50
2023-02-02T03:06:24.505Z,12.27
2023-02-02T03:09:11.981Z,13.43
2023-02-02T03:12:00.070Z,10.97
2023-02-02T03:14:43.461Z,14.50
2023-02-02T03:17:28.784Z,11.80
2023-02-02T03:20:13.395Z,12.90
2023-02-02T03:22:56.530Z,12.83
2023-02-02T03:25:41.356Z,11.67
2023-02-02T03:28:25.822Z,19.60
2023-02-02T03:31:09.213Z,12.00
2023-02-02T03:33:54.959Z,14.40
2023-02-02T03:36:46.732Z,12.57
2023-02-02T03:39:29.859Z,12.73
2023-02-02T03:42:16.977Z,11.50
2023-02-02T03:44:59.999Z,13.37
2023-02-02T03:47:50.540Z,12.07
2023-02-02T03:50:33.766Z,10.20
2023-02-02T03:53:16.927Z,11.67
2023-02-02T03:56:00.052Z,12.57
2023-02-02T03:58:46.590Z,18.50
2023-02-02T04:01:30.683Z,19.10
2023-02-02T04:04:16.264Z,19.97
2023-02-02T04:06:59.435Z,18.00
2023-02-02T04:09:44.829Z,15.03
2023-02-02T04:12:28.219Z,16.80
2023-02-02T04:15:13.186Z,15.70
2023-02-02T04:17:56.414Z,16.33
2023-02-02T04:20:44.140Z,15.43
2023-02-02T04:23:27.639Z,20.23
2023-02-02T04:26:11.761Z,37.47
2023-02-02T04:28:55.197Z,24.90
2023-02-02T04:31:39.705Z,22.87
2023-02-02T04:34:22.917Z,19.03
2023-02-02T04:37:06.076Z,17.70
2023-02-02T04:39:50.918Z,17.57
2023-02-02T04:42:35.128Z,21.70
2023-02-02T04:45:18.365Z,20.63
2023-02-02T04:48:06.759Z,19.83
2023-02-02T04:50:57.426Z,20.00
2023-02-02T04:53:41.140Z,20.17
2023-02-02T04:59:21.920Z,23.13
2023-02-02T05:02:05.126Z,28.93
2023-02-02T05:04:49.678Z,29.30
2023-02-02T05:07:32.760Z,29.43
2023-02-02T05:10:15.821Z,26.13
2023-02-02T05:12:58.915Z,39.07
2023-02-02T05:15:43.516Z,42.93
2023-02-02T05:18:27.173Z,45.00
2023-02-02T05:21:14.247Z,39.83
2023-02-02T05:24:00.931Z,39.27
2023-02-02T05:26:44.426Z,37.23
2023-02-02T05:29:28.113Z,26.80
2023-02-02T05:32:12.602Z,28.07
2023-02-02T05:34:56.433Z,26.40
2023-02-02T05:37:43.679Z,27.90
2023-02-02T05:40:27.258Z,23.10
2023-02-02T05:43:10.988Z,30.93
2023-02-02T05:45:54.228Z,25.33
2023-02-02T05:48:37.488Z,28.50
2023-02-02T05:51:24.509Z,28.67
2023-02-02T05:54:09.368Z,36.20
2023-02-02T05:56:54.722Z,31.03
2023-02-02T05:59:38.242Z,30.30
2023-02-02T06:02:24.312Z,25.33
2023-02-02T06:05:09.301Z,32.60
2023-02-02T06:07:57.974Z,29.73
2023-02-02T06:10:43.134Z,33.43
2023-02-02T06:13:26.407Z,27.07
2023-02-02T06:16:12.783Z,33.77
2023-02-02T06:18:56.553Z,27.63
2023-02-02T06:21:39.631Z,30.47
2023-02-02T06:24:23.013Z,24.73
2023-02-02T06:27:07.671Z,28.47
2023-02-02T06:29:54.011Z,25.57
2023-02-02T06:32:38.960Z,24.47
2023-02-02T06:35:24.924Z,26.43
2023-02-02T06:38:08.746Z,26.43
2023-02-02T06:40:52.368Z,29.50
2023-02-02T06:43:36.896Z,23.47
2023-02-02T06:46:20.121Z,30.10
2023-02-02T06:49:06.455Z,31.27
2023-02-02T06:51:49.553Z,30.47
2023-02-02T06:54:32.605Z,34.97
2023-02-02T06:57:15.740Z,33.27
2023-02-02T07:00:00.242Z,36.63
2023-02-02T07:02:46.578Z,33.90
2023-02-02T07:05:30.845Z,31.70
2023-02-02T07:08:15.418Z,33.17
2023-02-02T07:11:13.314Z,31.00
2023-02-02T07:14:06.586Z,30.93
2023-02-02T07:16:51.292Z,31.77
2023-02-02T07:19:34.861Z,29.30
2023-02-02T07:22:18.088Z,28.43
2023-02-02T07:25:09.850Z,35.10
2023-02-02T07:27:54.576Z,30.60
2023-02-02T07:30:37.826Z,26.57
2023-02-02T07:33:25.841Z,28.33
2023-02-02T07:36:09.388Z,33.63
2023-02-02T07:38:55.278Z,27.83
2023-02-02T07:41:41.131Z,26.83
2023-02-02T07:44:25.375Z,35.50
2023-02-02T07:47:09.058Z,26.90
2023-02-02T07:49:53.532Z,32.80
2023-02-02T07:52:36.527Z,30.27
2023-02-02T07:55:20.275Z,29.43
2023-02-02T07:58:03.810Z,30.10
2023-02-02T08:00:46.969Z,31.10
2023-02-02T08:03:30.295Z,28.13
2023-02-02T08:06:18.751Z,38.47
2023-02-02T08:09:03.242Z,27.30
2023-02-02T08:11:46.473Z,36.33
2023-02-02T08:14:30.090Z,28.47
2023-02-02T08:17:15.195Z,28.70
2023-02-02T08:20:00.716Z,25.63
2023-02-02T08:22:45.389Z,28.40
2023-02-02T08:25:37.774Z,25.33
2023-02-02T08:28:21.054Z,24.43
2023-02-02T08:31:09.486Z,30.67
2023-02-02T08:33:54.128Z,28.97
2023-02-02T08:36:39.774Z,26.47
2023-02-02T08:39:24.768Z,22.93
2023-02-02T08:42:09.395Z,25.83
2023-02-02T08:46:00.410Z,23.53
2023-02-02T08:48:09.513Z,23.60
2023-02-02T08:50:55.661Z,27.37
2023-02-02T08:53:38.767Z,24.23
2023-02-02T08:56:24.241Z,22.57
2023-02-02T08:59:07.778Z,22.80
2023-02-02T09:01:50.894Z,30.83
2023-02-02T09:04:34.183Z,31.13
2023-02-02T09:07:17.327Z,26.83
2023-02-02T09:10:01.054Z,31.40
2023-02-02T09:12:45.542Z,28.50
2023-02-02T09:15:28.594Z,38.30
2023-02-02T09:18:11.648Z,30.47
2023-02-02T09:20:54.726Z,28.30
2023-02-02T09:23:40.157Z,32.60
2023-02-02T09:26:26.536Z,28.20
2023-02-02T09:29:13.749Z,25.17
2023-02-02T09:31:57.201Z,42.40
2023-02-02T09:34:41.084Z,28.50
2023-02-02T09:37:24.947Z,31.37
2023-02-02T09:40:10.501Z,26.23
2023-02-02T09:43:07.728Z,29.33
2023-02-02T09:46:02.922Z,33.07
2023-02-02T09:48:53.927Z,29.17
2023-02-02T09:51:42.958Z,32.63
2023-02-02T09:54:32.992Z,33.90
2023-02-02T09:57:23.509Z,35.80
2023-02-02T10:00:17.650Z,27.87
2023-02-02T10:03:09.118Z,22.20
2023-02-02T10:05:57.230Z,29.90
2023-02-02T10:08:45.150Z,23.80
2023-02-02T10:11:34.134Z,27.27
2023-02-02T10:14:22.424Z,29.53
2023-02-02T10:17:24.355Z,26.17
2023-02-02T10:20:32.888Z,32.20
2023-02-02T10:23:26.563Z,22.73
2023-02-02T10:26:19.105Z,25.80
2023-02-02T10:29:16.579Z,28.00
2023-02-02T10:32:15.478Z,21.57
2023-02-02T10:35:20.292Z,18.80
2023-02-02T10:38:10.863Z,26.67
2023-02-02T10:41:02.177Z,20.10
2023-02-02T10:44:03.046Z,21.90
2023-02-02T10:46:50.299Z,15.77
2023-02-02T10:49:36.409Z,17.43
2023-02-02T10:52:27.682Z,15.93
2023-02-02T10:55:22.572Z,22.80
2023-02-02T10:58:18.479Z,17.43
2023-02-02T11:01:03.841Z,21.50
2023-02-02T11:03:47.018Z,23.83
2023-02-02T11:06:47.340Z,17.03
2023-02-02T11:09:40.818Z,23.20
2023-02-02T11:12:30.334Z,9.17
2023-02-02T11:15:27.067Z,11.27
2023-02-02T11:18:29.392Z,8.90
2023-02-02T11:21:21.380Z,9.43
2023-02-02T11:24:08.015Z,14.07
2023-02-02T11:26:58.551Z,14.13
2023-02-02T11:29:47.254Z,12.47
2023-02-02T11:32:33.375Z,8.63
2023-02-02T11:35:23.325Z,12.17
2023-02-02T11:38:11.380Z,9.33
2023-02-02T11:40:56.891Z,10.27
2023-02-02T11:43:51.203Z,8.90
2023-02-02T11:46:39.775Z,13.33
2023-02-02T11:49:26.994Z,13.83
2023-02-02T11:52:19.334Z,14.30
2023-02-02T11:55:10.790Z,12.80
2023-02-02T11:58:25.145Z,7.20
2023-02-02T12:01:24.816Z,8.03
2023-02-02T12:04:26.806Z,7.00
2023-02-02T12:07:19.793Z,11.07
2023-02-02T12:10:14.684Z,10.27
2023-02-02T12:13:07.089Z,9.57
2023-02-02T12:15:59.786Z,8.00
2023-02-02T12:18:54.822Z,10.10
2023-02-02T12:21:48.035Z,15.90
2023-02-02T12:24:36.625Z,8.83
2023-02-02T12:27:31.799Z,10.07
2023-02-02T12:30:29.775Z,9.27
2023-02-02T12:33:25.650Z,10.03
2023-02-02T12:36:24.957Z,9.67
2023-02-02T12:39:30.151Z,15.20
2023-02-02T12:42:26.791Z,15.57
2023-02-02T12:45:44.309Z,10.50
2023-02-02T12:48:42.834Z,12.70
2023-02-02T12:51:42.542Z,9.03
2023-02-02T12:54:47.578Z,7.83
2023-02-02T12:57:49.364Z,8.43
2023-02-02T13:01:16.775Z,8.23
2023-02-02T13:04:09.383Z,11.83
2023-02-02T13:07:26.939Z,13.93
2023-02-02T13:10:19.477Z,16.50
2023-02-02T13:13:06.983Z,16.97
2023-02-02T13:15:54.016Z,17.00
2023-02-02T13:18:40.994Z,16.70
2023-02-02T13:21:26.565Z,17.63
2023-02-02T13:24:21.058Z,14.90
2023-02-02T13:27:08.006Z,12.03
2023-02-02T13:29:55.604Z,9.77
2023-02-02T13:32:41.288Z,8.90
2023-02-02T13:35:30.304Z,9.43
2023-02-02T13:38:23.008Z,9.00
2023-02-02T13:41:12.787Z,12.83
2023-02-02T13:44:03.300Z,15.10
2023-02-02T13:46:53.659Z,10.90
2023-02-02T13:49:44.103Z,13.33
2023-02-02T13:52:50.078Z,11.73
2023-02-02T13:55:55.315Z,9.80
2023-02-02T13:59:19.022Z,9.70
2023-02-02T14:02:08.711Z,9.37
2023-02-02T14:04:56.324Z,9.33
2023-02-02T14:07:47.155Z,10.37
2023-02-02T14:10:36.257Z,8.83
2023-02-02T14:13:40.846Z,9.23
2023-02-02T14:16:43.120Z,9.20
2023-02-02T14:19:50.683Z,9.43
2023-02-02T14:22:43.268Z,8.73
2023-02-02T14:26:05.196Z,8.87
2023-02-02T14:28:50.950Z,9.40
2023-02-02T14:31:53.274Z,14.07
2023-02-02T14:34:37.592Z,8.97
2023-02-02T14:37:48.881Z,9.27
2023-02-02T14:40:44.048Z,11.00
2023-02-02T14:43:50.990Z,7.90
2023-02-02T14:46:40.313Z,8.47
2023-02-02T14:49:27.593Z,8.90
2023-02-02T14:52:23.179Z,9.93
2023-02-02T14:55:19.425Z,10.53
2023-02-02T15:02:18.401Z,8.93
2023-02-02T15:05:40.439Z,11.17
2023-02-02T15:08:27.075Z,12.63
2023-02-02T15:11:32.329Z,11.73
2023-02-02T15:14:17.276Z,10.90
2023-02-02T15:17:04.469Z,9.77
2023-02-02T15:19:53.117Z,11.23
2023-02-02T15:22:41.158Z,10.80
2023-02-02T15:25:27.761Z,12.87
2023-02-02T15:28:22.807Z,10.03
2023-02-02T15:31:14.522Z,9.97
2023-02-02T15:34:01.321Z,19.80
2023-02-02T15:36:47.875Z,9.40
2023-02-02T15:39:35.204Z,8.50
2023-02-02T15:42:39.240Z,8.17
2023-02-02T15:45:49.927Z,9.00
2023-02-02T15:48:36.929Z,11.13
2023-02-02T15:51:22.073Z,11.37
2023-02-02T15:54:22.023Z,13.50
2023-02-02T15:57:05.855Z,11.20
2023-02-02T15:59:49.548Z,15.00
2023-02-02T16:02:40.925Z,11.27
2023-02-02T16:05:25.670Z,10.67
2023-02-02T16:08:16.706Z,18.03
2023-02-02T16:11:09.770Z,13.40
2023-02-02T16:14:03.509Z,11.23
2023-02-02T16:16:49.526Z,8.83
2023-02-02T16:19:34.488Z,9.00
2023-02-02T16:22:20.848Z,8.93
2023-02-02T16:25:08.079Z,8.77
2023-02-02T16:27:53.180Z,8.77
2023-02-02T16:30:39.909Z,8.57
2023-02-02T16:33:37.399Z,8.33
2023-02-02T16:36:26.492Z,8.03
2023-02-02T16:39:18.048Z,7.30
2023-02-02T16:42:18.867Z,10.03
2023-02-02T16:45:02.286Z,9.33
2023-02-02T16:47:45.518Z,34.47
2023-02-02T16:50:31.687Z,9.20
2023-02-02T16:53:24.226Z,8.90
2023-02-02T16:56:10.228Z,8.87
2023-02-02T16:58:58.106Z,8.10
2023-02-02T17:01:45.273Z,8.37
2023-02-02T17:04:30.797Z,8.37
2023-02-02T17:07:16.650Z,8.73
2023-02-02T17:10:24.048Z,8.73
2023-02-02T17:13:40.594Z,8.60
2023-02-02T17:16:27.038Z,8.33
2023-02-02T17:19:10.651Z,9.00
2023-02-02T17:21:56.675Z,9.07
2023-02-02T17:24:40.228Z,12.03
2023-02-02T17:27:28.880Z,11.80
2023-02-02T17:30:17.823Z,10.67
2023-02-02T17:33:00.947Z,13.17
2023-02-02T17:35:54.463Z,11.50
2023-02-02T17:38:38.760Z,11.70
2023-02-02T17:41:23.321Z,10.03
2023-02-02T17:44:09.526Z,9.57
2023-02-02T17:46:52.825Z,9.00
2023-02-02T17:49:35.919Z,10.37
2023-02-02T17:52:22.325Z,9.27
2023-02-02T17:55:11.431Z,9.27
2023-02-02T17:57:55.420Z,9.53
2023-02-02T18:00:40.609Z,8.93
2023-02-02T18:03:34.621Z,10.23
2023-02-02T18:06:17.842Z,8.77
2023-02-02T18:09:01.266Z,9.30
2023-02-02T18:11:45.660Z,9.17
2023-02-02T18:14:28.961Z,12.57
2023-02-02T18:17:13.561Z,9.63
2023-02-02T18:20:00.131Z,9.27
2023-02-02T18:22:45.977Z,9.30
2023-02-02T18:25:29.249Z,9.30
2023-02-02T18:28:15.860Z,10.10
2023-02-02T18:31:00.112Z,9.57
2023-02-02T18:33:45.178Z,9.50
2023-02-02T18:36:28.502Z,8.80
2023-02-02T18:39:11.779Z,8.70
2023-02-02T18:41:54.853Z,9.30
2023-02-02T18:44:38.903Z,8.10
2023-02-02T18:47:23.425Z,8.97
2023-02-02T18:50:14.440Z,8.80
2023-02-02T18:53:02.517Z,8.87
2023-02-02T18:55:46.051Z,9.53
2023-02-02T18:58:32.023Z,8.63
2023-02-02T19:01:20.468Z,9.40
2023-02-02T19:04:06.720Z,9.77
2023-02-02T19:07:09.172Z,8.27
2023-02-02T19:09:57.143Z,9.77
2023-02-02T19:12:40.330Z,10.60
2023-02-02T19:15:26.148Z,8.90
2023-02-02T19:18:15.350Z,9.63
2023-02-02T19:20:58.634Z,9.20
2023-02-02T19:23:46.270Z,9.60
2023-02-02T19:26:30.698Z,8.77
2023-02-02T19:29:18.643Z,8.87
2023-02-02T19:32:10.210Z,9.63
2023-02-02T19:34:55.278Z,13.50
2023-02-02T19:37:40.101Z,11.80
2023-02-02T19:40:26.147Z,9.30
2023-02-02T19:43:24.652Z,11.30
2023-02-02T19:46:17.287Z,9.47
2023-02-02T19:49:08.759Z,11.93
2023-02-02T19:51:54.472Z,10.50
2023-02-02T19:54:41.710Z,9.93
2023-02-02T19:57:36.611Z,10.27
2023-02-02T20:00:24.008Z,10.20
2023-02-02T20:03:13.938Z,9.60
2023-02-02T20:05:59.360Z,10.70
2023-02-02T20:08:44.320Z,10.33
2023-02-02T20:11:35.742Z,10.17
2023-02-02T20:14:30.274Z,13.70
2023-02-02T20:17:21.524Z,13.63
2023-02-02T20:20:20.633Z,9.97
2023-02-02T20:23:06.455Z,10.10
2023-02-02T20:25:49.762Z,12.37
2023-02-02T20:28:43.191Z,10.03
2023-02-02T20:31:37.528Z,10.63
2023-02-02T20:34:29.753Z,16.20
2023-02-02T20:37:22.555Z,10.80
2023-02-02T20:40:22.492Z,12.00
2023-02-02T20:43:05.822Z,10.67
2023-02-02T20:45:56.517Z,9.30
2023-02-02T20:48:41.078Z,9.67
2023-02-02T20:51:24.706Z,9.70
2023-02-02T20:54:08.993Z,10.87
2023-02-02T20:56:54.374Z,11.20
2023-02-02T20:59:37.510Z,10.53
2023-02-02T21:02:20.645Z,11.87
2023-02-02T21:05:08.229Z,12.53
2023-02-02T21:07:56.717Z,11.30
2023-02-02T21:10:40.309Z,11.47
2023-02-02T21:13:23.343Z,15.33
2023-02-02T21:16:07.433Z,12.37
2023-02-02T21:18:52.263Z,11.77
2023-02-02T21:21:36.836Z,13.90
2023-02-02T21:24:19.960Z,11.13
2023-02-02T21:27:04.811Z,11.47
2023-02-02T21:29:48.025Z,11.40
2023-02-02T21:32:31.056Z,12.93
2023-02-02T21:35:15.810Z,11.23
2023-02-02T21:38:08.125Z,12.10
2023-02-02T21:40:53.395Z,11.50
2023-02-02T21:43:36.524Z,12.77
2023-02-02T21:46:23.099Z,11.03
2023-02-02T21:49:14.351Z,13.30
2023-02-02T21:52:00.276Z,15.03
2023-02-02T21:54:45.632Z,12.10
2023-02-02T21:57:37.367Z,10.97
2023-02-02T22:00:29.029Z,11.40
2023-02-02T22:03:27.902Z,13.23
2023-02-02T22:06:26.843Z,13.83
2023-02-02T22:09:21.180Z,12.40
2023-02-02T22:12:15.979Z,11.67
2023-02-02T22:15:01.710Z,14.90
2023-02-02T22:17:45.845Z,10.90
2023-02-02T22:20:37.157Z,14.50
2023-02-02T22:23:22.512Z,12.37
2023-02-02T22:26:06.114Z,12.40
2023-02-02T22:28:52.932Z,11.93
2023-02-02T22:31:36.129Z,14.37
2023-02-02T22:34:19.259Z,13.60
2023-02-02T22:37:03.386Z,15.47
2023-02-02T22:39:46.451Z,11.10
2023-02-02T22:42:33.149Z,14.00
2023-02-02T22:45:17.845Z,11.20
2023-02-02T22:48:03.782Z,11.63
2023-02-02T22:50:47.278Z,11.63
2023-02-02T22:53:33.308Z,12.87
2023-02-02T22:56:16.541Z,13.07
2023-02-02T22:59:01.629Z,13.40
2023-02-02T23:01:46.071Z,9.90
2023-02-02T23:04:30.335Z,10.90
2023-02-02T23:07:13.347Z,11.13
2023-02-02T23:09:56.739Z,14.57
2023-02-02T23:12:40.242Z,10.90
2023-02-02T23:15:23.425Z,13.70
2023-02-02T23:18:07.971Z,12.47
2023-02-02T23:20:51.053Z,11.27
2023-02-02T23:23:34.179Z,9.77
2023-02-02T23:26:19.201Z,10.33
2023-02-02T23:29:02.245Z,11.27
2023-02-02T23:31:45.526Z,10.83
2023-02-02T23:34:30.273Z,9.60
2023-02-02T23:37:13.439Z,13.17
2023-02-02T23:39:56.532Z,10.57
2023-02-02T23:42:39.726Z,10.70
2023-02-02T23:45:22.897Z,11.87
2023-02-02T23:48:06.308Z,13.83
2023-02-02T23:50:50.794Z,9.90
2023-02-02T23:53:36.235Z,10.17
2023-02-02T23:56:19.639Z,11.43
2023-02-02T23:59:03.167Z,10.37
